sensor_id;sensor_type;location;lat;lon;timestamp;P1;durP1;ratioP1;P2;durP2;ratioP2
71622;SDS011;59473;53.214;5.728;2023-10-19T00:00:25;13.77;;;7.68;;
71622;SDS011;59473;53.214;5.728;2023-10-19T00:02:51;15.13;;;9.07;;
71622;SDS011;59473;53.214;5.728;2023-10-19T00:05:16;14.65;;;8.35;;
71622;SDS011;59473;53.214;5.728;2023-10-19T00:07:42;13.68;;;6.95;;
71622;SDS011;59473;53.214;5.728;2023-10-19T00:10:08;11.60;;;7.55;;
71622;SDS011;59473;53.214;5.728;2023-10-19T00:12:34;12.13;;;7.73;;
71622;SDS011;59473;53.214;5.728;2023-10-19T00:14:59;21.77;;;11.50;;
71622;SDS011;59473;53.214;5.728;2023-10-19T00:17:25;13.82;;;7.70;;
71622;SDS011;59473;53.214;5.728;2023-10-19T00:19:52;15.63;;;9.03;;
71622;SDS011;59473;53.214;5.728;2023-10-19T00:22:43;15.70;;;8.45;;
71622;SDS011;59473;53.214;5.728;2023-10-19T00:25:09;12.23;;;6.85;;
71622;SDS011;59473;53.214;5.728;2023-10-19T00:27:38;18.03;;;9.03;;
71622;SDS011;59473;53.214;5.728;2023-10-19T00:30:03;19.35;;;9.93;;
71622;SDS011;59473;53.214;5.728;2023-10-19T00:32:31;17.83;;;8.70;;
71622;SDS011;59473;53.214;5.728;2023-10-19T00:34:57;16.35;;;9.80;;
71622;SDS011;59473;53.214;5.728;2023-10-19T00:37:29;14.60;;;8.30;;
71622;SDS011;59473;53.214;5.728;2023-10-19T00:39:57;21.90;;;11.18;;
71622;SDS011;59473;53.214;5.728;2023-10-19T00:42:39;13.05;;;7.85;;
71622;SDS011;59473;53.214;5.728;2023-10-19T00:45:10;17.45;;;10.25;;
71622;SDS011;59473;53.214;5.728;2023-10-19T00:47:38;12.30;;;8.25;;
71622;SDS011;59473;53.214;5.728;2023-10-19T00:50:05;20.73;;;11.63;;
71622;SDS011;59473;53.214;5.728;2023-10-19T00:52:37;18.90;;;10.77;;
71622;SDS011;59473;53.214;5.728;2023-10-19T00:55:08;15.73;;;9.88;;
71622;SDS011;59473;53.214;5.728;2023-10-19T00:57:37;15.05;;;7.68;;
71622;SDS011;59473;53.214;5.728;2023-10-19T01:00:06;9.73;;;6.13;;
71622;SDS011;59473;53.214;5.728;2023-10-19T01:02:41;21.87;;;12.30;;
71622;SDS011;59473;53.214;5.728;2023-10-19T01:05:10;16.27;;;10.38;;
71622;SDS011;59473;53.214;5.728;2023-10-19T01:07:38;13.32;;;8.07;;
71622;SDS011;59473;53.214;5.728;2023-10-19T01:10:04;17.63;;;11.43;;
71622;SDS011;59473;53.214;5.728;2023-10-19T01:12:31;20.45;;;10.57;;
71622;SDS011;59473;53.214;5.728;2023-10-19T01:15:12;17.20;;;11.00;;
71622;SDS011;59473;53.214;5.728;2023-10-19T01:17:38;16.00;;;8.68;;
71622;SDS011;59473;53.214;5.728;2023-10-19T01:20:06;17.40;;;9.40;;
71622;SDS011;59473;53.214;5.728;2023-10-19T01:22:49;19.52;;;10.02;;
71622;SDS011;59473;53.214;5.728;2023-10-19T01:25:18;20.58;;;12.20;;
71622;SDS011;59473;53.214;5.728;2023-10-19T01:27:44;17.13;;;8.63;;
71622;SDS011;59473;53.214;5.728;2023-10-19T01:30:10;19.60;;;10.93;;
71622;SDS011;59473;53.214;5.728;2023-10-19T01:32:36;19.90;;;12.25;;
71622;SDS011;59473;53.214;5.728;2023-10-19T01:35:01;23.20;;;14.03;;
71622;SDS011;59473;53.214;5.728;2023-10-19T01:37:26;20.53;;;12.73;;
71622;SDS011;59473;53.214;5.728;2023-10-19T01:39:51;17.77;;;10.60;;
71622;SDS011;59473;53.214;5.728;2023-10-19T01:42:17;19.27;;;11.35;;
71622;SDS011;59473;53.214;5.728;2023-10-19T01:44:42;22.50;;;11.47;;
71622;SDS011;59473;53.214;5.728;2023-10-19T01:47:08;24.53;;;13.20;;
71622;SDS011;59473;53.214;5.728;2023-10-19T01:49:33;18.50;;;10.20;;
71622;SDS011;59473;53.214;5.728;2023-10-19T01:51:58;14.20;;;9.63;;
71622;SDS011;59473;53.214;5.728;2023-10-19T01:54:25;19.30;;;10.93;;
71622;SDS011;59473;53.214;5.728;2023-10-19T01:56:51;14.38;;;8.75;;
71622;SDS011;59473;53.214;5.728;2023-10-19T01:59:19;15.13;;;9.90;;
71622;SDS011;59473;53.214;5.728;2023-10-19T02:01:44;19.77;;;11.70;;
71622;SDS011;59473;53.214;5.728;2023-10-19T02:04:14;19.53;;;11.80;;
71622;SDS011;59473;53.214;5.728;2023-10-19T02:06:39;18.63;;;12.20;;
71622;SDS011;59473;53.214;5.728;2023-10-19T02:09:11;23.60;;;12.60;;
71622;SDS011;59473;53.214;5.728;2023-10-19T02:11:53;23.02;;;12.75;;
71622;SDS011;59473;53.214;5.728;2023-10-19T02:14:22;19.90;;;11.93;;
71622;SDS011;59473;53.214;5.728;2023-10-19T02:16:50;22.50;;;11.90;;
71622;SDS011;59473;53.214;5.728;2023-10-19T02:19:17;22.50;;;11.90;;
71622;SDS011;59473;53.214;5.728;2023-10-19T02:21:42;22.60;;;12.20;;
71622;SDS011;59473;53.214;5.728;2023-10-19T02:24:08;16.37;;;10.40;;
71622;SDS011;59473;53.214;5.728;2023-10-19T02:26:33;18.57;;;10.47;;
71622;SDS011;59473;53.214;5.728;2023-10-19T02:28:59;11.97;;;6.97;;
71622;SDS011;59473;53.214;5.728;2023-10-19T02:31:24;15.02;;;9.02;;
71622;SDS011;59473;53.214;5.728;2023-10-19T02:33:53;14.57;;;9.27;;
71622;SDS011;59473;53.214;5.728;2023-10-19T02:36:28;13.73;;;8.02;;
71622;SDS011;59473;53.214;5.728;2023-10-19T02:38:54;16.70;;;9.98;;
71622;SDS011;59473;53.214;5.728;2023-10-19T02:41:23;17.40;;;9.70;;
71622;SDS011;59473;53.214;5.728;2023-10-19T02:43:48;15.73;;;9.20;;
71622;SDS011;59473;53.214;5.728;2023-10-19T02:46:26;14.20;;;8.70;;
71622;SDS011;59473;53.214;5.728;2023-10-19T02:48:51;14.40;;;8.82;;
71622;SDS011;59473;53.214;5.728;2023-10-19T02:51:16;14.00;;;8.40;;
71622;SDS011;59473;53.214;5.728;2023-10-19T02:53:44;11.55;;;7.70;;
71622;SDS011;59473;53.214;5.728;2023-10-19T02:56:13;12.30;;;6.77;;
71622;SDS011;59473;53.214;5.728;2023-10-19T02:58:42;13.00;;;8.18;;
71622;SDS011;59473;53.214;5.728;2023-10-19T03:01:14;14.80;;;7.97;;
71622;SDS011;59473;53.214;5.728;2023-10-19T03:03:42;12.10;;;7.07;;
71622;SDS011;59473;53.214;5.728;2023-10-19T03:06:08;10.90;;;6.53;;
71622;SDS011;59473;53.214;5.728;2023-10-19T03:08:34;9.48;;;5.95;;
71622;SDS011;59473;53.214;5.728;2023-10-19T03:11:00;12.60;;;7.93;;
71622;SDS011;59473;53.214;5.728;2023-10-19T03:13:29;10.48;;;6.80;;
71622;SDS011;59473;53.214;5.728;2023-10-19T03:15:54;11.87;;;7.40;;
71622;SDS011;59473;53.214;5.728;2023-10-19T03:18:19;12.23;;;7.23;;
71622;SDS011;59473;53.214;5.728;2023-10-19T03:20:44;10.27;;;6.53;;
71622;SDS011;59473;53.214;5.728;2023-10-19T03:23:10;7.97;;;5.20;;
71622;SDS011;59473;53.214;5.728;2023-10-19T03:25:35;10.83;;;6.93;;
71622;SDS011;59473;53.214;5.728;2023-10-19T03:28:14;9.75;;;6.40;;
71622;SDS011;59473;53.214;5.728;2023-10-19T03:30:41;10.48;;;6.43;;
71622;SDS011;59473;53.214;5.728;2023-10-19T03:33:07;9.97;;;5.97;;
71622;SDS011;59473;53.214;5.728;2023-10-19T03:35:37;12.02;;;7.40;;
71622;SDS011;59473;53.214;5.728;2023-10-19T03:38:03;9.80;;;6.28;;
71622;SDS011;59473;53.214;5.728;2023-10-19T03:40:40;10.53;;;6.70;;
71622;SDS011;59473;53.214;5.728;2023-10-19T03:43:05;10.35;;;5.72;;
71622;SDS011;59473;53.214;5.728;2023-10-19T03:45:41;10.55;;;6.05;;
71622;SDS011;59473;53.214;5.728;2023-10-19T03:48:12;9.60;;;5.77;;
71622;SDS011;59473;53.214;5.728;2023-10-19T03:50:38;9.38;;;5.88;;
71622;SDS011;59473;53.214;5.728;2023-10-19T03:53:03;10.07;;;6.07;;
71622;SDS011;59473;53.214;5.728;2023-10-19T03:55:32;9.63;;;5.67;;
71622;SDS011;59473;53.214;5.728;2023-10-19T03:58:02;5.25;;;3.40;;
71622;SDS011;59473;53.214;5.728;2023-10-19T04:00:28;9.30;;;5.57;;
71622;SDS011;59473;53.214;5.728;2023-10-19T04:02:57;10.27;;;6.83;;
71622;SDS011;59473;53.214;5.728;2023-10-19T04:05:23;7.78;;;5.13;;
71622;SDS011;59473;53.214;5.728;2023-10-19T04:07:50;9.18;;;6.13;;
71622;SDS011;59473;53.214;5.728;2023-10-19T04:10:24;9.20;;;6.00;;
71622;SDS011;59473;53.214;5.728;2023-10-19T04:13:03;8.85;;;5.95;;
71622;SDS011;59473;53.214;5.728;2023-10-19T04:15:29;10.55;;;5.85;;
71622;SDS011;59473;53.214;5.728;2023-10-19T04:17:57;8.43;;;5.47;;
71622;SDS011;59473;53.214;5.728;2023-10-19T04:20:25;9.60;;;5.93;;
71622;SDS011;59473;53.214;5.728;2023-10-19T04:22:50;8.93;;;5.27;;
71622;SDS011;59473;53.214;5.728;2023-10-19T04:25:16;8.98;;;5.35;;
71622;SDS011;59473;53.214;5.728;2023-10-19T04:27:45;8.93;;;5.57;;
71622;SDS011;59473;53.214;5.728;2023-10-19T04:30:11;8.15;;;4.88;;
71622;SDS011;59473;53.214;5.728;2023-10-19T04:32:46;9.25;;;6.18;;
71622;SDS011;59473;53.214;5.728;2023-10-19T04:35:12;9.87;;;6.10;;
71622;SDS011;59473;53.214;5.728;2023-10-19T04:37:46;9.18;;;5.80;;
71622;SDS011;59473;53.214;5.728;2023-10-19T04:40:11;8.63;;;5.13;;
71622;SDS011;59473;53.214;5.728;2023-10-19T04:42:40;10.47;;;6.23;;
71622;SDS011;59473;53.214;5.728;2023-10-19T04:45:05;9.43;;;5.47;;
71622;SDS011;59473;53.214;5.728;2023-10-19T04:47:31;11.73;;;7.23;;
71622;SDS011;59473;53.214;5.728;2023-10-19T04:49:58;9.88;;;6.75;;
71622;SDS011;59473;53.214;5.728;2023-10-19T04:52:23;9.93;;;5.87;;
71622;SDS011;59473;53.214;5.728;2023-10-19T04:54:48;9.70;;;6.47;;
71622;SDS011;59473;53.214;5.728;2023-10-19T04:57:13;8.50;;;5.73;;
71622;SDS011;59473;53.214;5.728;2023-10-19T04:59:39;8.33;;;5.30;;
71622;SDS011;59473;53.214;5.728;2023-10-19T05:02:04;8.23;;;5.03;;
71622;SDS011;59473;53.214;5.728;2023-10-19T05:04:30;9.20;;;5.80;;
71622;SDS011;59473;53.214;5.728;2023-10-19T05:06:56;9.53;;;5.77;;
71622;SDS011;59473;53.214;5.728;2023-10-19T05:09:21;8.10;;;4.90;;
71622;SDS011;59473;53.214;5.728;2023-10-19T05:11:46;9.03;;;5.07;;
71622;SDS011;59473;53.214;5.728;2023-10-19T05:14:12;9.40;;;5.77;;
71622;SDS011;59473;53.214;5.728;2023-10-19T05:16:40;10.40;;;5.45;;
71622;SDS011;59473;53.214;5.728;2023-10-19T05:19:06;11.57;;;5.90;;
71622;SDS011;59473;53.214;5.728;2023-10-19T05:21:31;8.37;;;5.67;;
71622;SDS011;59473;53.214;5.728;2023-10-19T05:23:56;8.37;;;5.70;;
71622;SDS011;59473;53.214;5.728;2023-10-19T05:26:22;8.50;;;5.37;;
71622;SDS011;59473;53.214;5.728;2023-10-19T05:28:47;7.60;;;4.50;;
71622;SDS011;59473;53.214;5.728;2023-10-19T05:31:13;9.52;;;6.60;;
71622;SDS011;59473;53.214;5.728;2023-10-19T05:33:38;8.17;;;4.97;;
71622;SDS011;59473;53.214;5.728;2023-10-19T05:36:03;10.00;;;6.10;;
71622;SDS011;59473;53.214;5.728;2023-10-19T05:38:30;8.40;;;5.07;;
71622;SDS011;59473;53.214;5.728;2023-10-19T05:40:57;9.30;;;5.67;;
71622;SDS011;59473;53.214;5.728;2023-10-19T05:43:22;8.85;;;5.25;;
71622;SDS011;59473;53.214;5.728;2023-10-19T05:45:47;8.87;;;5.80;;
71622;SDS011;59473;53.214;5.728;2023-10-19T05:48:16;7.97;;;5.32;;
71622;SDS011;59473;53.214;5.728;2023-10-19T05:50:41;10.03;;;6.27;;
71622;SDS011;59473;53.214;5.728;2023-10-19T05:53:07;9.03;;;5.50;;
71622;SDS011;59473;53.214;5.728;2023-10-19T05:55:32;9.87;;;6.30;;
71622;SDS011;59473;53.214;5.728;2023-10-19T05:57:59;9.30;;;6.10;;
71622;SDS011;59473;53.214;5.728;2023-10-19T06:00:24;9.20;;;5.40;;
71622;SDS011;59473;53.214;5.728;2023-10-19T06:02:51;9.02;;;6.03;;
71622;SDS011;59473;53.214;5.728;2023-10-19T06:05:16;7.83;;;5.37;;
71622;SDS011;59473;53.214;5.728;2023-10-19T06:07:43;10.15;;;6.47;;
71622;SDS011;59473;53.214;5.728;2023-10-19T06:10:10;9.07;;;5.97;;
71622;SDS011;59473;53.214;5.728;2023-10-19T06:12:40;14.85;;;6.78;;
71622;SDS011;59473;53.214;5.728;2023-10-19T06:15:06;8.48;;;5.50;;
71622;SDS011;59473;53.214;5.728;2023-10-19T06:17:32;8.97;;;6.03;;
71622;SDS011;59473;53.214;5.728;2023-10-19T06:19:58;8.50;;;5.03;;
71622;SDS011;59473;53.214;5.728;2023-10-19T06:22:23;9.47;;;5.83;;
71622;SDS011;59473;53.214;5.728;2023-10-19T06:24:48;9.93;;;6.47;;
71622;SDS011;59473;53.214;5.728;2023-10-19T06:27:14;10.63;;;6.70;;
71622;SDS011;59473;53.214;5.728;2023-10-19T06:29:39;11.23;;;6.40;;
71622;SDS011;59473;53.214;5.728;2023-10-19T06:32:04;10.80;;;6.87;;
71622;SDS011;59473;53.214;5.728;2023-10-19T06:34:29;8.23;;;5.27;;
71622;SDS011;59473;53.214;5.728;2023-10-19T06:36:54;10.17;;;6.87;;
71622;SDS011;59473;53.214;5.728;2023-10-19T06:39:20;10.03;;;6.77;;
71622;SDS011;59473;53.214;5.728;2023-10-19T06:41:48;12.55;;;7.50;;
71622;SDS011;59473;53.214;5.728;2023-10-19T06:44:14;11.38;;;6.95;;
71622;SDS011;59473;53.214;5.728;2023-10-19T06:46:40;10.30;;;6.80;;
71622;SDS011;59473;53.214;5.728;2023-10-19T06:49:05;9.80;;;6.53;;
71622;SDS011;59473;53.214;5.728;2023-10-19T06:51:31;9.73;;;6.03;;
71622;SDS011;59473;53.214;5.728;2023-10-19T06:53:57;10.88;;;6.47;;
71622;SDS011;59473;53.214;5.728;2023-10-19T06:56:22;9.30;;;6.43;;
71622;SDS011;59473;53.214;5.728;2023-10-19T06:58:48;10.90;;;7.37;;
71622;SDS011;59473;53.214;5.728;2023-10-19T07:01:13;11.07;;;7.07;;
71622;SDS011;59473;53.214;5.728;2023-10-19T07:03:41;11.90;;;8.40;;
71622;SDS011;59473;53.214;5.728;2023-10-19T07:06:06;12.87;;;7.87;;
71622;SDS011;59473;53.214;5.728;2023-10-19T07:08:32;11.25;;;7.38;;
71622;SDS011;59473;53.214;5.728;2023-10-19T07:10:58;11.40;;;7.70;;
71622;SDS011;59473;53.214;5.728;2023-10-19T07:13:23;13.37;;;9.27;;
71622;SDS011;59473;53.214;5.728;2023-10-19T07:15:48;14.30;;;8.70;;
71622;SDS011;59473;53.214;5.728;2023-10-19T07:18:16;14.10;;;7.22;;
71622;SDS011;59473;53.214;5.728;2023-10-19T07:20:42;13.03;;;8.30;;
71622;SDS011;59473;53.214;5.728;2023-10-19T07:23:07;16.25;;;9.63;;
71622;SDS011;59473;53.214;5.728;2023-10-19T07:25:51;16.10;;;10.02;;
71622;SDS011;59473;53.214;5.728;2023-10-19T07:28:21;17.08;;;10.90;;
71622;SDS011;59473;53.214;5.728;2023-10-19T07:30:47;16.08;;;11.10;;
71622;SDS011;59473;53.214;5.728;2023-10-19T07:33:12;13.53;;;8.67;;
71622;SDS011;59473;53.214;5.728;2023-10-19T07:35:42;14.93;;;9.65;;
71622;SDS011;59473;53.214;5.728;2023-10-19T07:38:08;14.43;;;10.30;;
71622;SDS011;59473;53.214;5.728;2023-10-19T07:40:34;13.13;;;8.33;;
71622;SDS011;59473;53.214;5.728;2023-10-19T07:43:00;16.63;;;11.30;;
71622;SDS011;59473;53.214;5.728;2023-10-19T07:45:25;14.33;;;9.43;;
71622;SDS011;59473;53.214;5.728;2023-10-19T07:47:50;17.30;;;10.80;;
71622;SDS011;59473;53.214;5.728;2023-10-19T07:50:16;18.90;;;10.27;;
71622;SDS011;59473;53.214;5.728;2023-10-19T07:52:41;14.33;;;9.07;;
71622;SDS011;59473;53.214;5.728;2023-10-19T07:55:08;14.15;;;8.80;;
71622;SDS011;59473;53.214;5.728;2023-10-19T07:57:33;15.73;;;9.70;;
71622;SDS011;59473;53.214;5.728;2023-10-19T07:59:59;13.57;;;8.37;;
71622;SDS011;59473;53.214;5.728;2023-10-19T08:02:24;16.27;;;10.00;;
71622;SDS011;59473;53.214;5.728;2023-10-19T08:04:50;19.90;;;10.33;;
71622;SDS011;59473;53.214;5.728;2023-10-19T08:07:16;18.38;;;11.23;;
71622;SDS011;59473;53.214;5.728;2023-10-19T08:09:42;17.38;;;11.35;;
71622;SDS011;59473;53.214;5.728;2023-10-19T08:12:07;19.13;;;12.37;;
71622;SDS011;59473;53.214;5.728;2023-10-19T08:14:34;16.50;;;10.30;;
71622;SDS011;59473;53.214;5.728;2023-10-19T08:16:59;18.80;;;11.50;;
71622;SDS011;59473;53.214;5.728;2023-10-19T08:19:25;16.47;;;10.77;;
71622;SDS011;59473;53.214;5.728;2023-10-19T08:21:52;16.75;;;11.23;;
71622;SDS011;59473;53.214;5.728;2023-10-19T08:24:17;19.33;;;11.53;;
71622;SDS011;59473;53.214;5.728;2023-10-19T08:26:46;17.85;;;11.00;;
71622;SDS011;59473;53.214;5.728;2023-10-19T08:29:11;22.00;;;12.03;;
71622;SDS011;59473;53.214;5.728;2023-10-19T08:31:43;16.63;;;10.38;;
71622;SDS011;59473;53.214;5.728;2023-10-19T08:34:10;16.52;;;9.75;;
71622;SDS011;59473;53.214;5.728;2023-10-19T08:36:36;15.87;;;10.37;;
71622;SDS011;59473;53.214;5.728;2023-10-19T08:39:02;18.67;;;12.00;;
71622;SDS011;59473;53.214;5.728;2023-10-19T08:41:31;18.98;;;13.00;;
71622;SDS011;59473;53.214;5.728;2023-10-19T08:43:56;17.25;;;11.38;;
71622;SDS011;59473;53.214;5.728;2023-10-19T08:46:22;19.17;;;11.60;;
71622;SDS011;59473;53.214;5.728;2023-10-19T08:48:49;15.77;;;9.57;;
71622;SDS011;59473;53.214;5.728;2023-10-19T08:51:15;15.20;;;9.40;;
71622;SDS011;59473;53.214;5.728;2023-10-19T08:53:41;15.02;;;9.60;;
71622;SDS011;59473;53.214;5.728;2023-10-19T08:56:09;16.65;;;9.60;;
71622;SDS011;59473;53.214;5.728;2023-10-19T08:58:35;16.73;;;10.50;;
71622;SDS011;59473;53.214;5.728;2023-10-19T09:01:01;20.08;;;11.23;;
71622;SDS011;59473;53.214;5.728;2023-10-19T09:03:31;19.38;;;10.27;;
71622;SDS011;59473;53.214;5.728;2023-10-19T09:05:57;14.70;;;9.63;;
71622;SDS011;59473;53.214;5.728;2023-10-19T09:08:25;24.75;;;12.70;;
71622;SDS011;59473;53.214;5.728;2023-10-19T09:10:50;19.77;;;11.00;;
71622;SDS011;59473;53.214;5.728;2023-10-19T09:13:20;18.98;;;10.60;;
71622;SDS011;59473;53.214;5.728;2023-10-19T09:15:47;19.27;;;11.32;;
71622;SDS011;59473;53.214;5.728;2023-10-19T09:18:19;17.90;;;11.13;;
71622;SDS011;59473;53.214;5.728;2023-10-19T09:20:45;18.73;;;11.32;;
71622;SDS011;59473;53.214;5.728;2023-10-19T09:23:22;16.65;;;10.68;;
71622;SDS011;59473;53.214;5.728;2023-10-19T09:25:48;22.02;;;12.23;;
71622;SDS011;59473;53.214;5.728;2023-10-19T09:28:13;18.00;;;10.68;;
71622;SDS011;59473;53.214;5.728;2023-10-19T09:30:39;17.97;;;9.57;;
71622;SDS011;59473;53.214;5.728;2023-10-19T09:33:04;26.53;;;12.60;;
71622;SDS011;59473;53.214;5.728;2023-10-19T09:35:31;25.83;;;14.48;;
71622;SDS011;59473;53.214;5.728;2023-10-19T09:37:56;18.90;;;11.40;;
71622;SDS011;59473;53.214;5.728;2023-10-19T09:40:22;21.70;;;11.47;;
71622;SDS011;59473;53.214;5.728;2023-10-19T09:42:48;19.13;;;11.23;;
71622;SDS011;59473;53.214;5.728;2023-10-19T09:45:16;21.08;;;12.00;;
71622;SDS011;59473;53.214;5.728;2023-10-19T09:47:44;19.30;;;11.15;;
71622;SDS011;59473;53.214;5.728;2023-10-19T09:50:11;20.65;;;11.48;;
71622;SDS011;59473;53.214;5.728;2023-10-19T09:52:39;19.80;;;11.30;;
71622;SDS011;59473;53.214;5.728;2023-10-19T09:58:02;19.50;;;10.90;;
71622;SDS011;59473;53.214;5.728;2023-10-19T10:00:29;19.83;;;11.50;;
71622;SDS011;59473;53.214;5.728;2023-10-19T10:02:57;22.05;;;12.98;;
71622;SDS011;59473;53.214;5.728;2023-10-19T10:10:43;22.58;;;12.07;;
71622;SDS011;59473;53.214;5.728;2023-10-19T10:15:49;16.77;;;9.52;;
71622;SDS011;59473;53.214;5.728;2023-10-19T10:18:15;20.13;;;10.23;;
71622;SDS011;59473;53.214;5.728;2023-10-19T10:20:40;20.77;;;12.07;;
71622;SDS011;59473;53.214;5.728;2023-10-19T10:23:16;19.65;;;11.13;;
71622;SDS011;59473;53.214;5.728;2023-10-19T10:25:41;18.42;;;9.20;;
71622;SDS011;59473;53.214;5.728;2023-10-19T10:28:13;20.02;;;12.65;;
71622;SDS011;59473;53.214;5.728;2023-10-19T10:31:06;24.15;;;12.02;;
71622;SDS011;59473;53.214;5.728;2023-10-19T10:36:15;20.87;;;12.50;;
71622;SDS011;59473;53.214;5.728;2023-10-19T10:38:42;21.90;;;11.98;;
71622;SDS011;59473;53.214;5.728;2023-10-19T10:41:08;17.42;;;10.02;;
71622;SDS011;59473;53.214;5.728;2023-10-19T10:43:52;16.45;;;10.63;;
71622;SDS011;59473;53.214;5.728;2023-10-19T10:46:18;19.02;;;11.50;;
71622;SDS011;59473;53.214;5.728;2023-10-19T10:48:43;18.27;;;11.03;;
71622;SDS011;59473;53.214;5.728;2023-10-19T10:51:15;20.50;;;11.00;;
71622;SDS011;59473;53.214;5.728;2023-10-19T10:53:40;18.45;;;11.82;;
71622;SDS011;59473;53.214;5.728;2023-10-19T10:56:06;18.98;;;11.88;;
71622;SDS011;59473;53.214;5.728;2023-10-19T10:58:31;17.30;;;9.03;;
71622;SDS011;59473;53.214;5.728;2023-10-19T11:00:57;19.60;;;11.67;;
71622;SDS011;59473;53.214;5.728;2023-10-19T11:03:22;16.70;;;10.03;;
71622;SDS011;59473;53.214;5.728;2023-10-19T11:05:49;14.00;;;8.67;;
71622;SDS011;59473;53.214;5.728;2023-10-19T11:08:15;17.77;;;11.73;;
71622;SDS011;59473;53.214;5.728;2023-10-19T11:10:46;19.08;;;10.75;;
71622;SDS011;59473;53.214;5.728;2023-10-19T11:13:12;17.25;;;10.35;;
71622;SDS011;59473;53.214;5.728;2023-10-19T11:15:38;10.80;;;7.43;;
71622;SDS011;59473;53.214;5.728;2023-10-19T11:18:04;17.02;;;9.52;;
71622;SDS011;59473;53.214;5.728;2023-10-19T11:20:30;19.92;;;11.88;;
71622;SDS011;59473;53.214;5.728;2023-10-19T11:22:56;15.70;;;9.60;;
71622;SDS011;59473;53.214;5.728;2023-10-19T11:25:22;18.25;;;11.43;;
71622;SDS011;59473;53.214;5.728;2023-10-19T11:27:48;17.67;;;11.45;;
71622;SDS011;59473;53.214;5.728;2023-10-19T11:30:14;20.17;;;15.20;;
71622;SDS011;59473;53.214;5.728;2023-10-19T11:32:47;13.88;;;9.55;;
71622;SDS011;59473;53.214;5.728;2023-10-19T11:35:12;16.50;;;10.57;;
71622;SDS011;59473;53.214;5.728;2023-10-19T11:37:47;16.90;;;10.73;;
71622;SDS011;59473;53.214;5.728;2023-10-19T11:40:12;17.63;;;11.03;;
71622;SDS011;59473;53.214;5.728;2023-10-19T11:42:38;16.65;;;10.65;;
71622;SDS011;59473;53.214;5.728;2023-10-19T11:45:03;16.57;;;10.97;;
71622;SDS011;59473;53.214;5.728;2023-10-19T11:47:31;18.03;;;11.63;;
71622;SDS011;59473;53.214;5.728;2023-10-19T11:49:56;15.65;;;10.05;;
71622;SDS011;59473;53.214;5.728;2023-10-19T11:52:21;13.27;;;8.90;;
71622;SDS011;59473;53.214;5.728;2023-10-19T11:54:47;18.95;;;9.63;;
71622;SDS011;59473;53.214;5.728;2023-10-19T11:57:13;11.50;;;7.57;;
71622;SDS011;59473;53.214;5.728;2023-10-19T11:59:38;17.43;;;10.47;;
71622;SDS011;59473;53.214;5.728;2023-10-19T12:02:05;19.08;;;9.48;;
71622;SDS011;59473;53.214;5.728;2023-10-19T12:04:31;16.65;;;11.05;;
71622;SDS011;59473;53.214;5.728;2023-10-19T12:06:57;16.50;;;10.43;;
71622;SDS011;59473;53.214;5.728;2023-10-19T12:09:22;14.27;;;8.60;;
71622;SDS011;59473;53.214;5.728;2023-10-19T12:11:50;15.05;;;9.60;;
71622;SDS011;59473;53.214;5.728;2023-10-19T12:14:18;14.43;;;7.82;;
71622;SDS011;59473;53.214;5.728;2023-10-19T12:16:44;13.00;;;7.55;;
71622;SDS011;59473;53.214;5.728;2023-10-19T12:19:10;12.60;;;7.05;;
71622;SDS011;59473;53.214;5.728;2023-10-19T12:21:35;13.83;;;8.27;;
71622;SDS011;59473;53.214;5.728;2023-10-19T12:24:02;15.13;;;8.25;;
71622;SDS011;59473;53.214;5.728;2023-10-19T12:26:29;12.27;;;8.02;;
71622;SDS011;59473;53.214;5.728;2023-10-19T12:28:55;12.43;;;7.50;;
71622;SDS011;59473;53.214;5.728;2023-10-19T12:31:20;14.38;;;7.95;;
71622;SDS011;59473;53.214;5.728;2023-10-19T12:33:47;13.77;;;7.82;;
71622;SDS011;59473;53.214;5.728;2023-10-19T12:36:12;14.17;;;7.97;;
71622;SDS011;59473;53.214;5.728;2023-10-19T12:38:52;13.18;;;7.95;;
71622;SDS011;59473;53.214;5.728;2023-10-19T12:41:18;12.37;;;8.10;;
71622;SDS011;59473;53.214;5.728;2023-10-19T12:43:43;12.95;;;7.15;;
71622;SDS011;59473;53.214;5.728;2023-10-19T12:46:10;13.02;;;7.50;;
71622;SDS011;59473;53.214;5.728;2023-10-19T12:48:37;14.35;;;8.07;;
71622;SDS011;59473;53.214;5.728;2023-10-19T12:51:03;14.20;;;7.80;;
71622;SDS011;59473;53.214;5.728;2023-10-19T12:53:29;15.77;;;8.50;;
71622;SDS011;59473;53.214;5.728;2023-10-19T12:55:54;14.27;;;8.75;;
71622;SDS011;59473;53.214;5.728;2023-10-19T12:58:19;12.80;;;8.23;;
71622;SDS011;59473;53.214;5.728;2023-10-19T13:00:46;12.27;;;6.33;;
71622;SDS011;59473;53.214;5.728;2023-10-19T13:03:13;12.02;;;7.00;;
71622;SDS011;59473;53.214;5.728;2023-10-19T13:05:39;11.03;;;6.33;;
71622;SDS011;59473;53.214;5.728;2023-10-19T13:08:06;13.93;;;7.03;;
71622;SDS011;59473;53.214;5.728;2023-10-19T13:10:32;13.43;;;6.63;;
71622;SDS011;59473;53.214;5.728;2023-10-19T13:13:01;8.50;;;4.90;;
71622;SDS011;59473;53.214;5.728;2023-10-19T13:15:28;12.70;;;6.05;;
71622;SDS011;59473;53.214;5.728;2023-10-19T13:17:56;10.47;;;6.10;;
71622;SDS011;59473;53.214;5.728;2023-10-19T13:20:21;9.77;;;5.80;;
71622;SDS011;59473;53.214;5.728;2023-10-19T13:22:46;9.63;;;6.23;;
71622;SDS011;59473;53.214;5.728;2023-10-19T13:25:12;9.33;;;5.27;;
71622;SDS011;59473;53.214;5.728;2023-10-19T13:27:53;11.68;;;6.68;;
71622;SDS011;59473;53.214;5.728;2023-10-19T13:30:18;12.13;;;5.67;;
71622;SDS011;59473;53.214;5.728;2023-10-19T13:32:44;10.43;;;5.93;;
71622;SDS011;59473;53.214;5.728;2023-10-19T13:35:09;7.53;;;4.50;;
71622;SDS011;59473;53.214;5.728;2023-10-19T13:37:34;13.43;;;5.63;;
71622;SDS011;59473;53.214;5.728;2023-10-19T13:39:59;10.27;;;6.57;;
71622;SDS011;59473;53.214;5.728;2023-10-19T13:42:25;11.07;;;6.53;;
71622;SDS011;59473;53.214;5.728;2023-10-19T13:44:50;9.20;;;5.27;;
71622;SDS011;59473;53.214;5.728;2023-10-19T13:47:15;11.17;;;5.83;;
71622;SDS011;59473;53.214;5.728;2023-10-19T13:49:41;10.98;;;5.88;;
71622;SDS011;59473;53.214;5.728;2023-10-19T13:52:06;6.90;;;3.70;;
71622;SDS011;59473;53.214;5.728;2023-10-19T13:54:33;12.17;;;6.73;;
71622;SDS011;59473;53.214;5.728;2023-10-19T13:56:59;13.52;;;7.65;;
71622;SDS011;59473;53.214;5.728;2023-10-19T13:59:24;16.83;;;7.60;;
71622;SDS011;59473;53.214;5.728;2023-10-19T14:01:50;13.73;;;7.77;;
71622;SDS011;59473;53.214;5.728;2023-10-19T14:04:15;11.57;;;6.50;;
71622;SDS011;59473;53.214;5.728;2023-10-19T14:06:41;9.80;;;5.88;;
71622;SDS011;59473;53.214;5.728;2023-10-19T14:09:07;12.63;;;7.47;;
71622;SDS011;59473;53.214;5.728;2023-10-19T14:11:37;18.67;;;8.00;;
71622;SDS011;59473;53.214;5.728;2023-10-19T14:14:02;11.83;;;7.77;;
71622;SDS011;59473;53.214;5.728;2023-10-19T14:16:28;13.70;;;6.83;;
71622;SDS011;59473;53.214;5.728;2023-10-19T14:18:53;15.00;;;7.80;;
71622;SDS011;59473;53.214;5.728;2023-10-19T14:21:18;13.80;;;8.67;;
71622;SDS011;59473;53.214;5.728;2023-10-19T14:23:45;13.65;;;7.20;;
71622;SDS011;59473;53.214;5.728;2023-10-19T14:26:10;8.67;;;5.60;;
71622;SDS011;59473;53.214;5.728;2023-10-19T14:28:35;12.93;;;6.87;;
71622;SDS011;59473;53.214;5.728;2023-10-19T14:31:01;18.77;;;8.83;;
71622;SDS011;59473;53.214;5.728;2023-10-19T14:33:29;15.55;;;8.20;;
71622;SDS011;59473;53.214;5.728;2023-10-19T14:35:54;15.63;;;9.27;;
71622;SDS011;59473;53.214;5.728;2023-10-19T14:38:19;12.80;;;7.27;;
71622;SDS011;59473;53.214;5.728;2023-10-19T14:40:44;17.80;;;9.00;;
71622;SDS011;59473;53.214;5.728;2023-10-19T14:43:13;12.05;;;5.68;;
71622;SDS011;59473;53.214;5.728;2023-10-19T14:45:39;15.83;;;8.97;;